sensor_id;sensor_type;location;lat;lon;timestamp;P1;durP1;ratioP1;P2;durP2;ratioP2
13327;SDS011;6733;51.044;3.746;2022-10-26T00:01:13;8.37;;;5.80;;
13327;SDS011;6733;51.044;3.746;2022-10-26T00:03:41;7.87;;;5.50;;
13327;SDS011;6733;51.044;3.746;2022-10-26T00:06:10;10.57;;;5.73;;
13327;SDS011;6733;51.044;3.746;2022-10-26T00:08:38;10.70;;;5.53;;
13327;SDS011;6733;51.044;3.746;2022-10-26T00:11:05;9.80;;;5.73;;
13327;SDS011;6733;51.044;3.746;2022-10-26T00:13:32;6.97;;;5.43;;
13327;SDS011;6733;51.044;3.746;2022-10-26T00:15:58;9.20;;;5.73;;
13327;SDS011;6733;51.044;3.746;2022-10-26T00:18:25;8.33;;;5.70;;
13327;SDS011;6733;51.044;3.746;2022-10-26T00:20:52;10.80;;;5.40;;
13327;SDS011;6733;51.044;3.746;2022-10-26T00:23:17;10.53;;;5.87;;
13327;SDS011;6733;51.044;3.746;2022-10-26T00:25:44;13.23;;;6.03;;
13327;SDS011;6733;51.044;3.746;2022-10-26T00:28:18;11.53;;;6.43;;
13327;SDS011;6733;51.044;3.746;2022-10-26T00:30:44;10.07;;;5.27;;
13327;SDS011;6733;51.044;3.746;2022-10-26T00:33:11;11.77;;;5.67;;
13327;SDS011;6733;51.044;3.746;2022-10-26T00:35:38;9.50;;;5.73;;
13327;SDS011;6733;51.044;3.746;2022-10-26T00:38:04;7.87;;;5.10;;
13327;SDS011;6733;51.044;3.746;2022-10-26T00:40:30;10.87;;;5.30;;
13327;SDS011;6733;51.044;3.746;2022-10-26T00:42:57;8.27;;;5.00;;
13327;SDS011;6733;51.044;3.746;2022-10-26T00:45:27;9.07;;;5.10;;
13327;SDS011;6733;51.044;3.746;2022-10-26T00:48:29;10.73;;;5.27;;
13327;SDS011;6733;51.044;3.746;2022-10-26T00:50:50;10.73;;;5.40;;
13327;SDS011;6733;51.044;3.746;2022-10-26T00:53:18;13.63;;;5.43;;
13327;SDS011;6733;51.044;3.746;2022-10-26T00:55:46;8.73;;;5.10;;
13327;SDS011;6733;51.044;3.746;2022-10-26T00:58:14;11.93;;;5.30;;
13327;SDS011;6733;51.044;3.746;2022-10-26T01:00:41;11.63;;;5.67;;
13327;SDS011;6733;51.044;3.746;2022-10-26T01:03:08;10.53;;;5.67;;
13327;SDS011;6733;51.044;3.746;2022-10-26T01:05:36;8.57;;;5.10;;
13327;SDS011;6733;51.044;3.746;2022-10-26T01:08:06;8.27;;;5.57;;
13327;SDS011;6733;51.044;3.746;2022-10-26T01:10:34;9.10;;;5.50;;
13327;SDS011;6733;51.044;3.746;2022-10-26T01:13:02;10.23;;;5.57;;
13327;SDS011;6733;51.044;3.746;2022-10-26T01:15:36;9.07;;;5.07;;
13327;SDS011;6733;51.044;3.746;2022-10-26T01:18:09;7.97;;;4.73;;
13327;SDS011;6733;51.044;3.746;2022-10-26T01:20:50;6.83;;;4.93;;
13327;SDS011;6733;51.044;3.746;2022-10-26T01:23:36;8.93;;;5.30;;
13327;SDS011;6733;51.044;3.746;2022-10-26T01:26:27;13.30;;;5.97;;
13327;SDS011;6733;51.044;3.746;2022-10-26T01:31:39;9.83;;;4.70;;
13327;SDS011;6733;51.044;3.746;2022-10-26T01:34:18;9.57;;;5.03;;
13327;SDS011;6733;51.044;3.746;2022-10-26T01:36:52;7.37;;;4.90;;
13327;SDS011;6733;51.044;3.746;2022-10-26T01:39:28;10.30;;;4.70;;
13327;SDS011;6733;51.044;3.746;2022-10-26T01:42:06;11.93;;;5.13;;
13327;SDS011;6733;51.044;3.746;2022-10-26T01:44:41;8.53;;;4.80;;
13327;SDS011;6733;51.044;3.746;2022-10-26T01:47:14;9.20;;;4.27;;
13327;SDS011;6733;51.044;3.746;2022-10-26T01:49:47;8.90;;;4.20;;
13327;SDS011;6733;51.044;3.746;2022-10-26T01:52:17;10.80;;;5.30;;
13327;SDS011;6733;51.044;3.746;2022-10-26T01:54:44;12.70;;;4.67;;
13327;SDS011;6733;51.044;3.746;2022-10-26T01:57:11;10.23;;;4.73;;
13327;SDS011;6733;51.044;3.746;2022-10-26T01:59:43;9.80;;;4.70;;
13327;SDS011;6733;51.044;3.746;2022-10-26T02:13:31;10.80;;;5.00;;
13327;SDS011;6733;51.044;3.746;2022-10-26T02:16:23;5.70;;;4.47;;
13327;SDS011;6733;51.044;3.746;2022-10-26T02:21:36;6.87;;;4.50;;
13327;SDS011;6733;51.044;3.746;2022-10-26T02:24:06;9.97;;;4.90;;
13327;SDS011;6733;51.044;3.746;2022-10-26T02:26:36;12.87;;;5.37;;
13327;SDS011;6733;51.044;3.746;2022-10-26T02:29:06;9.17;;;4.90;;
13327;SDS011;6733;51.044;3.746;2022-10-26T02:31:35;9.63;;;5.00;;
13327;SDS011;6733;51.044;3.746;2022-10-26T02:34:05;7.27;;;4.50;;
13327;SDS011;6733;51.044;3.746;2022-10-26T02:36:34;7.50;;;4.30;;
13327;SDS011;6733;51.044;3.746;2022-10-26T02:39:32;15.40;;;5.47;;
13327;SDS011;6733;51.044;3.746;2022-10-26T02:46:20;6.77;;;4.20;;
13327;SDS011;6733;51.044;3.746;2022-10-26T02:48:49;6.83;;;4.27;;
13327;SDS011;6733;51.044;3.746;2022-10-26T02:51:17;11.53;;;4.53;;
13327;SDS011;6733;51.044;3.746;2022-10-26T02:53:53;9.07;;;4.67;;
13327;SDS011;6733;51.044;3.746;2022-10-26T02:56:27;13.00;;;4.40;;
13327;SDS011;6733;51.044;3.746;2022-10-26T02:58:59;8.27;;;4.57;;
13327;SDS011;6733;51.044;3.746;2022-10-26T03:01:29;7.00;;;4.07;;
13327;SDS011;6733;51.044;3.746;2022-10-26T03:03:59;8.00;;;3.97;;
13327;SDS011;6733;51.044;3.746;2022-10-26T03:06:26;7.27;;;3.97;;
13327;SDS011;6733;51.044;3.746;2022-10-26T03:08:54;14.07;;;4.67;;
13327;SDS011;6733;51.044;3.746;2022-10-26T03:11:20;9.07;;;4.50;;
13327;SDS011;6733;51.044;3.746;2022-10-26T03:13:46;8.60;;;4.10;;
13327;SDS011;6733;51.044;3.746;2022-10-26T03:16:14;9.13;;;4.13;;
13327;SDS011;6733;51.044;3.746;2022-10-26T03:18:41;6.53;;;4.17;;
13327;SDS011;6733;51.044;3.746;2022-10-26T03:21:07;6.50;;;3.57;;
13327;SDS011;6733;51.044;3.746;2022-10-26T03:23:33;8.27;;;4.03;;
13327;SDS011;6733;51.044;3.746;2022-10-26T03:25:59;10.30;;;4.33;;
13327;SDS011;6733;51.044;3.746;2022-10-26T03:28:25;9.67;;;3.67;;
13327;SDS011;6733;51.044;3.746;2022-10-26T03:30:51;6.03;;;3.80;;
13327;SDS011;6733;51.044;3.746;2022-10-26T03:33:17;8.83;;;3.93;;
13327;SDS011;6733;51.044;3.746;2022-10-26T03:35:43;6.77;;;4.07;;
13327;SDS011;6733;51.044;3.746;2022-10-26T03:38:10;7.00;;;4.03;;
13327;SDS011;6733;51.044;3.746;2022-10-26T03:43:54;10.10;;;8.23;;
13327;SDS011;6733;51.044;3.746;2022-10-26T03:46:23;12.77;;;9.13;;
13327;SDS011;6733;51.044;3.746;2022-10-26T03:48:49;11.33;;;10.17;;
13327;SDS011;6733;51.044;3.746;2022-10-26T03:55:12;8.70;;;4.50;;
13327;SDS011;6733;51.044;3.746;2022-10-26T03:57:40;7.80;;;4.10;;
13327;SDS011;6733;51.044;3.746;2022-10-26T04:06:45;9.10;;;5.30;;
13327;SDS011;6733;51.044;3.746;2022-10-26T04:15:45;6.67;;;3.50;;
13327;SDS011;6733;51.044;3.746;2022-10-26T04:18:29;9.70;;;3.83;;
13327;SDS011;6733;51.044;3.746;2022-10-26T04:21:07;5.03;;;3.60;;
13327;SDS011;6733;51.044;3.746;2022-10-26T04:24:23;10.87;;;3.70;;
13327;SDS011;6733;51.044;3.746;2022-10-26T04:27:10;10.80;;;3.20;;
13327;SDS011;6733;51.044;3.746;2022-10-26T04:33:23;5.53;;;3.50;;
13327;SDS011;6733;51.044;3.746;2022-10-26T04:36:09;7.73;;;3.27;;
13327;SDS011;6733;51.044;3.746;2022-10-26T04:38:44;5.40;;;2.67;;
13327;SDS011;6733;51.044;3.746;2022-10-26T04:44:55;6.83;;;2.27;;
13327;SDS011;6733;51.044;3.746;2022-10-26T04:51:31;3.90;;;2.20;;
13327;SDS011;6733;51.044;3.746;2022-10-26T04:56:55;4.23;;;2.23;;
13327;SDS011;6733;51.044;3.746;2022-10-26T04:59:21;7.00;;;2.53;;
13327;SDS011;6733;51.044;3.746;2022-10-26T05:05:12;3.30;;;2.30;;
13327;SDS011;6733;51.044;3.746;2022-10-26T05:07:39;5.70;;;2.60;;
13327;SDS011;6733;51.044;3.746;2022-10-26T05:10:05;8.10;;;2.70;;
13327;SDS011;6733;51.044;3.746;2022-10-26T05:12:31;5.77;;;2.87;;
13327;SDS011;6733;51.044;3.746;2022-10-26T05:14:58;5.50;;;2.50;;
13327;SDS011;6733;51.044;3.746;2022-10-26T05:17:28;7.33;;;2.50;;
13327;SDS011;6733;51.044;3.746;2022-10-26T05:19:54;3.83;;;2.40;;
13327;SDS011;6733;51.044;3.746;2022-10-26T05:22:23;6.10;;;2.30;;
13327;SDS011;6733;51.044;3.746;2022-10-26T05:24:50;7.03;;;2.40;;
13327;SDS011;6733;51.044;3.746;2022-10-26T05:27:16;5.70;;;2.60;;
13327;SDS011;6733;51.044;3.746;2022-10-26T05:29:43;4.97;;;2.40;;
13327;SDS011;6733;51.044;3.746;2022-10-26T05:32:09;5.90;;;2.60;;
13327;SDS011;6733;51.044;3.746;2022-10-26T05:34:34;6.23;;;2.80;;
13327;SDS011;6733;51.044;3.746;2022-10-26T05:37:05;6.43;;;3.00;;
13327;SDS011;6733;51.044;3.746;2022-10-26T05:39:31;3.60;;;2.27;;
13327;SDS011;6733;51.044;3.746;2022-10-26T05:41:57;7.23;;;2.77;;
13327;SDS011;6733;51.044;3.746;2022-10-26T05:44:23;4.63;;;2.50;;
13327;SDS011;6733;51.044;3.746;2022-10-26T05:46:50;3.03;;;2.50;;
13327;SDS011;6733;51.044;3.746;2022-10-26T05:49:16;3.90;;;2.30;;
13327;SDS011;6733;51.044;3.746;2022-10-26T05:51:42;4.83;;;2.33;;
13327;SDS011;6733;51.044;3.746;2022-10-26T05:54:08;6.07;;;2.80;;
13327;SDS011;6733;51.044;3.746;2022-10-26T05:56:38;6.27;;;3.10;;
13327;SDS011;6733;51.044;3.746;2022-10-26T05:59:09;9.17;;;3.47;;
13327;SDS011;6733;51.044;3.746;2022-10-26T06:01:50;3.67;;;2.27;;
13327;SDS011;6733;51.044;3.746;2022-10-26T06:04:35;5.30;;;2.80;;
13327;SDS011;6733;51.044;3.746;2022-10-26T06:07:10;6.40;;;2.67;;
13327;SDS011;6733;51.044;3.746;2022-10-26T06:09:39;4.73;;;2.70;;
13327;SDS011;6733;51.044;3.746;2022-10-26T06:12:06;7.23;;;3.47;;
13327;SDS011;6733;51.044;3.746;2022-10-26T06:14:33;4.47;;;2.90;;
13327;SDS011;6733;51.044;3.746;2022-10-26T06:26:05;7.20;;;3.33;;
13327;SDS011;6733;51.044;3.746;2022-10-26T06:28:49;8.03;;;3.23;;
13327;SDS011;6733;51.044;3.746;2022-10-26T06:31:18;5.27;;;2.73;;
13327;SDS011;6733;51.044;3.746;2022-10-26T06:33:44;4.83;;;2.97;;
13327;SDS011;6733;51.044;3.746;2022-10-26T06:36:23;5.03;;;2.80;;
13327;SDS011;6733;51.044;3.746;2022-10-26T06:38:57;7.97;;;3.70;;
13327;SDS011;6733;51.044;3.746;2022-10-26T06:41:26;5.07;;;3.30;;
13327;SDS011;6733;51.044;3.746;2022-10-26T06:43:55;6.40;;;3.00;;
13327;SDS011;6733;51.044;3.746;2022-10-26T06:51:51;4.30;;;3.03;;
13327;SDS011;6733;51.044;3.746;2022-10-26T06:56:52;5.33;;;2.97;;
13327;SDS011;6733;51.044;3.746;2022-10-26T06:59:29;4.30;;;3.17;;
13327;SDS011;6733;51.044;3.746;2022-10-26T07:02:22;6.40;;;3.37;;
13327;SDS011;6733;51.044;3.746;2022-10-26T07:04:49;6.17;;;3.13;;
13327;SDS011;6733;51.044;3.746;2022-10-26T07:07:25;21.23;;;4.70;;
13327;SDS011;6733;51.044;3.746;2022-10-26T07:09:54;7.33;;;3.20;;
13327;SDS011;6733;51.044;3.746;2022-10-26T07:12:20;6.93;;;3.67;;
13327;SDS011;6733;51.044;3.746;2022-10-26T07:14:47;5.37;;;2.90;;
13327;SDS011;6733;51.044;3.746;2022-10-26T07:17:13;6.87;;;2.90;;
13327;SDS011;6733;51.044;3.746;2022-10-26T07:19:39;8.07;;;3.53;;
13327;SDS011;6733;51.044;3.746;2022-10-26T07:22:05;7.40;;;2.90;;
13327;SDS011;6733;51.044;3.746;2022-10-26T07:24:32;9.90;;;3.10;;
13327;SDS011;6733;51.044;3.746;2022-10-26T07:26:58;8.00;;;4.03;;
13327;SDS011;6733;51.044;3.746;2022-10-26T07:29:25;5.03;;;3.60;;
13327;SDS011;6733;51.044;3.746;2022-10-26T07:31:51;4.63;;;2.97;;
13327;SDS011;6733;51.044;3.746;2022-10-26T07:34:17;5.60;;;3.23;;
13327;SDS011;6733;51.044;3.746;2022-10-26T07:36:43;5.43;;;3.10;;
13327;SDS011;6733;51.044;3.746;2022-10-26T07:39:09;8.03;;;3.13;;
13327;SDS011;6733;51.044;3.746;2022-10-26T07:41:35;8.03;;;3.57;;
13327;SDS011;6733;51.044;3.746;2022-10-26T07:44:01;8.73;;;3.23;;
13327;SDS011;6733;51.044;3.746;2022-10-26T07:46:29;6.73;;;3.37;;
13327;SDS011;6733;51.044;3.746;2022-10-26T07:48:56;7.43;;;3.50;;
13327;SDS011;6733;51.044;3.746;2022-10-26T07:51:22;6.97;;;3.40;;
13327;SDS011;6733;51.044;3.746;2022-10-26T07:53:48;7.27;;;4.27;;
13327;SDS011;6733;51.044;3.746;2022-10-26T07:56:14;7.57;;;3.13;;
13327;SDS011;6733;51.044;3.746;2022-10-26T07:58:40;5.97;;;3.30;;
13327;SDS011;6733;51.044;3.746;2022-10-26T08:01:07;7.60;;;3.30;;
13327;SDS011;6733;51.044;3.746;2022-10-26T08:03:38;4.57;;;2.73;;
13327;SDS011;6733;51.044;3.746;2022-10-26T08:06:04;5.67;;;3.03;;
13327;SDS011;6733;51.044;3.746;2022-10-26T08:08:31;4.77;;;3.13;;
13327;SDS011;6733;51.044;3.746;2022-10-26T08:10:58;7.23;;;3.07;;
13327;SDS011;6733;51.044;3.746;2022-10-26T08:13:24;6.57;;;2.90;;
13327;SDS011;6733;51.044;3.746;2022-10-26T08:16:01;8.30;;;3.77;;
13327;SDS011;6733;51.044;3.746;2022-10-26T08:18:28;6.27;;;3.00;;
13327;SDS011;6733;51.044;3.746;2022-10-26T08:20:59;5.77;;;3.40;;
13327;SDS011;6733;51.044;3.746;2022-10-26T08:23:28;6.10;;;3.27;;
13327;SDS011;6733;51.044;3.746;2022-10-26T08:25:58;6.13;;;3.07;;
13327;SDS011;6733;51.044;3.746;2022-10-26T08:28:26;6.27;;;3.13;;
13327;SDS011;6733;51.044;3.746;2022-10-26T08:30:53;5.53;;;3.30;;
13327;SDS011;6733;51.044;3.746;2022-10-26T08:33:20;6.73;;;2.97;;
13327;SDS011;6733;51.044;3.746;2022-10-26T08:35:46;8.30;;;2.87;;
13327;SDS011;6733;51.044;3.746;2022-10-26T08:38:12;5.80;;;3.00;;
13327;SDS011;6733;51.044;3.746;2022-10-26T08:40:39;7.23;;;3.30;;
13327;SDS011;6733;51.044;3.746;2022-10-26T08:48:37;6.13;;;3.23;;
13327;SDS011;6733;51.044;3.746;2022-10-26T08:51:12;8.03;;;3.50;;
13327;SDS011;6733;51.044;3.746;2022-10-26T08:53:49;5.40;;;3.33;;
13327;SDS011;6733;51.044;3.746;2022-10-26T08:56:25;10.30;;;3.57;;
13327;SDS011;6733;51.044;3.746;2022-10-26T08:58:56;5.50;;;3.00;;
13327;SDS011;6733;51.044;3.746;2022-10-26T09:01:30;7.27;;;3.33;;
13327;SDS011;6733;51.044;3.746;2022-10-26T09:03:58;7.27;;;3.53;;
13327;SDS011;6733;51.044;3.746;2022-10-26T09:09:08;6.30;;;3.03;;
13327;SDS011;6733;51.044;3.746;2022-10-26T09:11:58;3.17;;;2.57;;
13327;SDS011;6733;51.044;3.746;2022-10-26T09:15:07;8.07;;;3.17;;
13327;SDS011;6733;51.044;3.746;2022-10-26T09:20:06;7.13;;;3.03;;
13327;SDS011;6733;51.044;3.746;2022-10-26T09:23:38;6.07;;;3.03;;
13327;SDS011;6733;51.044;3.746;2022-10-26T09:25:42;7.23;;;3.07;;
13327;SDS011;6733;51.044;3.746;2022-10-26T09:28:18;4.33;;;3.10;;
13327;SDS011;6733;51.044;3.746;2022-10-26T09:30:44;3.93;;;2.70;;
13327;SDS011;6733;51.044;3.746;2022-10-26T09:33:14;7.80;;;3.00;;
13327;SDS011;6733;51.044;3.746;2022-10-26T09:36:04;5.70;;;2.80;;
13327;SDS011;6733;51.044;3.746;2022-10-26T09:43:43;8.10;;;3.40;;
13327;SDS011;6733;51.044;3.746;2022-10-26T09:46:36;7.40;;;3.00;;
13327;SDS011;6733;51.044;3.746;2022-10-26T09:49:19;4.07;;;2.87;;
13327;SDS011;6733;51.044;3.746;2022-10-26T09:51:55;5.97;;;2.73;;
13327;SDS011;6733;51.044;3.746;2022-10-26T09:54:21;5.90;;;2.77;;
13327;SDS011;6733;51.044;3.746;2022-10-26T09:56:49;5.87;;;2.40;;
13327;SDS011;6733;51.044;3.746;2022-10-26T09:59:20;7.27;;;3.17;;
13327;SDS011;6733;51.044;3.746;2022-10-26T10:01:47;4.73;;;2.80;;
13327;SDS011;6733;51.044;3.746;2022-10-26T10:06:42;5.77;;;3.00;;
13327;SDS011;6733;51.044;3.746;2022-10-26T10:09:10;6.93;;;2.80;;
13327;SDS011;6733;51.044;3.746;2022-10-26T10:11:43;3.10;;;2.80;;
13327;SDS011;6733;51.044;3.746;2022-10-26T10:14:20;6.50;;;2.87;;
13327;SDS011;6733;51.044;3.746;2022-10-26T10:17:03;3.67;;;2.40;;
13327;SDS011;6733;51.044;3.746;2022-10-26T10:19:44;11.63;;;3.57;;
13327;SDS011;6733;51.044;3.746;2022-10-26T10:22:11;4.73;;;2.53;;
13327;SDS011;6733;51.044;3.746;2022-10-26T10:24:54;5.93;;;2.90;;
13327;SDS011;6733;51.044;3.746;2022-10-26T10:27:23;7.13;;;2.93;;
13327;SDS011;6733;51.044;3.746;2022-10-26T10:29:50;5.80;;;2.53;;
13327;SDS011;6733;51.044;3.746;2022-10-26T10:32:23;5.20;;;2.60;;
13327;SDS011;6733;51.044;3.746;2022-10-26T10:34:57;5.73;;;2.40;;
13327;SDS011;6733;51.044;3.746;2022-10-26T10:37:26;8.27;;;2.90;;
13327;SDS011;6733;51.044;3.746;2022-10-26T10:40:06;6.77;;;2.67;;
13327;SDS011;6733;51.044;3.746;2022-10-26T10:42:42;3.30;;;2.40;;
13327;SDS011;6733;51.044;3.746;2022-10-26T10:45:17;6.50;;;2.80;;
13327;SDS011;6733;51.044;3.746;2022-10-26T10:51:06;7.87;;;2.53;;
13327;SDS011;6733;51.044;3.746;2022-10-26T10:56:19;3.67;;;2.40;;
13327;SDS011;6733;51.044;3.746;2022-10-26T11:01:46;5.37;;;2.47;;
13327;SDS011;6733;51.044;3.746;2022-10-26T11:07:20;4.20;;;2.37;;
13327;SDS011;6733;51.044;3.746;2022-10-26T11:09:48;9.07;;;2.40;;
13327;SDS011;6733;51.044;3.746;2022-10-26T11:12:20;5.17;;;2.20;;
13327;SDS011;6733;51.044;3.746;2022-10-26T11:14:58;6.63;;;3.03;;
13327;SDS011;6733;51.044;3.746;2022-10-26T11:17:35;3.73;;;2.07;;
13327;SDS011;6733;51.044;3.746;2022-10-26T11:20:10;7.10;;;2.63;;
13327;SDS011;6733;51.044;3.746;2022-10-26T11:22:41;5.80;;;2.47;;
13327;SDS011;6733;51.044;3.746;2022-10-26T11:25:21;5.40;;;2.30;;
13327;SDS011;6733;51.044;3.746;2022-10-26T11:28:00;4.87;;;2.67;;
13327;SDS011;6733;51.044;3.746;2022-10-26T11:30:39;6.30;;;2.57;;
13327;SDS011;6733;51.044;3.746;2022-10-26T11:33:14;4.40;;;2.50;;
13327;SDS011;6733;51.044;3.746;2022-10-26T11:35:56;5.63;;;2.40;;
13327;SDS011;6733;51.044;3.746;2022-10-26T11:38:31;5.83;;;2.43;;
13327;SDS011;6733;51.044;3.746;2022-10-26T11:43:46;4.07;;;2.20;;
13327;SDS011;6733;51.044;3.746;2022-10-26T11:51:51;4.97;;;2.53;;
13327;SDS011;6733;51.044;3.746;2022-10-26T11:54:46;8.47;;;2.60;;
13327;SDS011;6733;51.044;3.746;2022-10-26T11:57:26;4.60;;;2.70;;
13327;SDS011;6733;51.044;3.746;2022-10-26T12:02:38;8.50;;;2.37;;
13327;SDS011;6733;51.044;3.746;2022-10-26T12:07:45;6.17;;;2.43;;
13327;SDS011;6733;51.044;3.746;2022-10-26T12:10:24;5.80;;;2.60;;
13327;SDS011;6733;51.044;3.746;2022-10-26T12:12:58;4.23;;;2.30;;
13327;SDS011;6733;51.044;3.746;2022-10-26T12:15:41;5.20;;;2.37;;
13327;SDS011;6733;51.044;3.746;2022-10-26T12:18:25;5.37;;;2.00;;
13327;SDS011;6733;51.044;3.746;2022-10-26T12:21:02;4.57;;;2.27;;
13327;SDS011;6733;51.044;3.746;2022-10-26T12:23:36;7.43;;;2.70;;
13327;SDS011;6733;51.044;3.746;2022-10-26T12:34:12;7.70;;;2.67;;
13327;SDS011;6733;51.044;3.746;2022-10-26T12:39:35;4.73;;;2.80;;
13327;SDS011;6733;51.044;3.746;2022-10-26T12:42:26;7.63;;;2.97;;
13327;SDS011;6733;51.044;3.746;2022-10-26T12:48:19;2.63;;;1.83;;
13327;SDS011;6733;51.044;3.746;2022-10-26T13:08:54;4.40;;;2.40;;
13327;SDS011;6733;51.044;3.746;2022-10-26T13:11:31;4.07;;;2.17;;
13327;SDS011;6733;51.044;3.746;2022-10-26T13:14:04;6.17;;;2.10;;
13327;SDS011;6733;51.044;3.746;2022-10-26T13:16:33;4.93;;;2.10;;
13327;SDS011;6733;51.044;3.746;2022-10-26T13:18:59;4.73;;;2.20;;
13327;SDS011;6733;51.044;3.746;2022-10-26T13:21:25;5.80;;;2.27;;
13327;SDS011;6733;51.044;3.746;2022-10-26T13:26:18;7.43;;;2.30;;
13327;SDS011;6733;51.044;3.746;2022-10-26T13:28:47;4.73;;;2.20;;
13327;SDS011;6733;51.044;3.746;2022-10-26T13:33:55;5.17;;;2.37;;
13327;SDS011;6733;51.044;3.746;2022-10-26T13:36:35;7.43;;;2.33;;
13327;SDS011;6733;51.044;3.746;2022-10-26T13:39:04;7.57;;;2.60;;
13327;SDS011;6733;51.044;3.746;2022-10-26T13:41:37;4.47;;;2.00;;
13327;SDS011;6733;51.044;3.746;2022-10-26T13:44:07;6.63;;;2.17;;
13327;SDS011;6733;51.044;3.746;2022-10-26T13:46:44;4.20;;;1.90;;
13327;SDS011;6733;51.044;3.746;2022-10-26T13:49:17;3.43;;;2.57;;
13327;SDS011;6733;51.044;3.746;2022-10-26T13:51:51;7.40;;;2.23;;
13327;SDS011;6733;51.044;3.746;2022-10-26T13:54:23;4.33;;;1.90;;
13327;SDS011;6733;51.044;3.746;2022-10-26T13:59:48;4.80;;;2.33;;
13327;SDS011;6733;51.044;3.746;2022-10-26T14:02:17;4.33;;;2.20;;
13327;SDS011;6733;51.044;3.746;2022-10-26T14:04:58;5.83;;;1.90;;
13327;SDS011;6733;51.044;3.746;2022-10-26T14:07:30;5.80;;;2.00;;
13327;SDS011;6733;51.044;3.746;2022-10-26T14:10:05;6.80;;;2.00;;
13327;SDS011;6733;51.044;3.746;2022-10-26T14:12:31;4.53;;;2.07;;
13327;SDS011;6733;51.044;3.746;2022-10-26T14:15:05;4.47;;;1.90;;
13327;SDS011;6733;51.044;3.746;2022-10-26T14:17:32;3.13;;;1.80;;
13327;SDS011;6733;51.044;3.746;2022-10-26T14:19:58;4.23;;;2.00;;
13327;SDS011;6733;51.044;3.746;2022-10-26T14:22:25;4.47;;;2.07;;
13327;SDS011;6733;51.044;3.746;2022-10-26T14:24:55;5.93;;;2.20;;
13327;SDS011;6733;51.044;3.746;2022-10-26T14:27:24;3.93;;;1.83;;
13327;SDS011;6733;51.044;3.746;2022-10-26T14:29:55;3.10;;;1.70;;
13327;SDS011;6733;51.044;3.746;2022-10-26T14:34:52;5.57;;;2.00;;
13327;SDS011;6733;51.044;3.746;2022-10-26T14:37:22;4.93;;;2.20;;
13327;SDS011;6733;51.044;3.746;2022-10-26T14:40:02;3.77;;;2.10;;
13327;SDS011;6733;51.044;3.746;2022-10-26T14:42:33;4.27;;;2.10;;
13327;SDS011;6733;51.044;3.746;2022-10-26T14:45:03;4.10;;;2.13;;
13327;SDS011;6733;51.044;3.746;2022-10-26T14:47:31;6.60;;;2.17;;
13327;SDS011;6733;51.044;3.746;2022-10-26T14:49:59;6.00;;;1.90;;
13327;SDS011;6733;51.044;3.746;2022-10-26T14:52:30;3.93;;;1.90;;
13327;SDS011;6733;51.044;3.746;2022-10-26T14:57:37;4.23;;;1.77;;
13327;SDS011;6733;51.044;3.746;2022-10-26T15:00:21;5.80;;;2.03;;
13327;SDS011;6733;51.044;3.746;2022-10-26T15:02:49;5.13;;;2.20;;
13327;SDS011;6733;51.044;3.746;2022-10-26T15:07:53;4.67;;;1.93;;
13327;SDS011;6733;51.044;3.746;2022-10-26T15:13:08;4.33;;;1.97;;
13327;SDS011;6733;51.044;3.746;2022-10-26T15:15:34;3.37;;;1.93;;
13327;SDS011;6733;51.044;3.746;2022-10-26T15:18:00;7.63;;;2.33;;
13327;SDS011;6733;51.044;3.746;2022-10-26T15:20:27;3.77;;;2.07;;
13327;SDS011;6733;51.044;3.746;2022-10-26T15:22:55;6.03;;;2.20;;
13327;SDS011;6733;51.044;3.746;2022-10-26T15:25:28;4.33;;;1.80;;
13327;SDS011;6733;51.044;3.746;2022-10-26T15:28:09;7.37;;;2.63;;
13327;SDS011;6733;51.044;3.746;2022-10-26T15:31:01;4.60;;;2.30;;
13327;SDS011;6733;51.044;3.746;2022-10-26T15:33:29;5.73;;;2.27;;
13327;SDS011;6733;51.044;3.746;2022-10-26T15:38:41;6.87;;;2.03;;
13327;SDS011;6733;51.044;3.746;2022-10-26T15:41:12;4.77;;;2.00;;
13327;SDS011;6733;51.044;3.746;2022-10-26T15:43:39;5.50;;;2.20;;
13327;SDS011;6733;51.044;3.746;2022-10-26T15:46:05;4.53;;;2.97;;
13327;SDS011;6733;51.044;3.746;2022-10-26T15:48:31;8.33;;;3.03;;
13327;SDS011;6733;51.044;3.746;2022-10-26T15:50:58;5.67;;;2.87;;
13327;SDS011;6733;51.044;3.746;2022-10-26T15:53:25;6.20;;;2.63;;
13327;SDS011;6733;51.044;3.746;2022-10-26T15:55:57;8.23;;;4.07;;
13327;SDS011;6733;51.044;3.746;2022-10-26T15:58:25;6.33;;;2.80;;
13327;SDS011;6733;51.044;3.746;2022-10-26T16:00:52;8.07;;;2.80;;
13327;SDS011;6733;51.044;3.746;2022-10-26T16:03:19;7.37;;;2.77;;
13327;SDS011;6733;51.044;3.746;2022-10-26T16:05:55;6.07;;;2.53;;
13327;SDS011;6733;51.044;3.746;2022-10-26T16:08:25;6.67;;;2.60;;
13327;SDS011;6733;51.044;3.746;2022-10-26T16:10:53;4.97;;;3.00;;
13327;SDS011;6733;51.044;3.746;2022-10-26T16:13:20;6.37;;;2.77;;
13327;SDS011;6733;51.044;3.746;2022-10-26T16:15:46;6.47;;;3.00;;
13327;SDS011;6733;51.044;3.746;2022-10-26T16:18:12;8.83;;;3.10;;
13327;SDS011;6733;51.044;3.746;2022-10-26T16:20:39;5.70;;;3.00;;
13327;SDS011;6733;51.044;3.746;2022-10-26T16:23:05;8.43;;;3.83;;
13327;SDS011;6733;51.044;3.746;2022-10-26T16:25:33;4.90;;;3.10;;
13327;SDS011;6733;51.044;3.746;2022-10-26T16:28:06;6.77;;;2.83;;
13327;SDS011;6733;51.044;3.746;2022-10-26T16:30:32;11.67;;;3.33;;
13327;SDS011;6733;51.044;3.746;2022-10-26T16:33:01;4.80;;;2.90;;
13327;SDS011;6733;51.044;3.746;2022-10-26T16:35:27;6.83;;;3.10;;
13327;SDS011;6733;51.044;3.746;2022-10-26T16:37:53;9.63;;;3.00;;
13327;SDS011;6733;51.044;3.746;2022-10-26T16:40:19;5.67;;;3.43;;
13327;SDS011;6733;51.044;3.746;2022-10-26T16:42:45;6.73;;;3.47;;
13327;SDS011;6733;51.044;3.746;2022-10-26T16:45:12;8.57;;;3.70;;
13327;SDS011;6733;51.044;3.746;2022-10-26T16:47:39;10.60;;;3.77;;
13327;SDS011;6733;51.044;3.746;2022-10-26T16:50:06;7.13;;;3.30;;
13327;SDS011;6733;51.044;3.746;2022-10-26T16:52:34;4.73;;;2.80;;
13327;SDS011;6733;51.044;3.746;2022-10-26T16:55:01;8.43;;;3.67;;
13327;SDS011;6733;51.044;3.746;2022-10-26T16:57:29;9.07;;;3.60;;
13327;SDS011;6733;51.044;3.746;2022-10-26T16:59:55;7.47;;;3.37;;
13327;SDS011;6733;51.044;3.746;2022-10-26T17:02:22;7.23;;;3.40;;
13327;SDS011;6733;51.044;3.746;2022-10-26T17:04:48;8.60;;;3.33;;
13327;SDS011;6733;51.044;3.746;2022-10-26T17:07:15;10.97;;;4.03;;
13327;SDS011;6733;51.044;3.746;2022-10-26T17:09:41;7.10;;;3.40;;
13327;SDS011;6733;51.044;3.746;2022-10-26T17:12:07;7.90;;;3.20;;
13327;SDS011;6733;51.044;3.746;2022-10-26T17:14:35;6.87;;;3.10;;
13327;SDS011;6733;51.044;3.746;2022-10-26T17:17:02;5.97;;;3.30;;
13327;SDS011;6733;51.044;3.746;2022-10-26T17:19:28;9.47;;;4.37;;
13327;SDS011;6733;51.044;3.746;2022-10-26T17:21:54;9.77;;;4.87;;
13327;SDS011;6733;51.044;3.746;2022-10-26T17:24:21;8.53;;;5.03;;
13327;SDS011;6733;51.044;3.746;2022-10-26T17:26:47;9.37;;;4.47;;
13327;SDS011;6733;51.044;3.746;2022-10-26T17:29:13;7.43;;;4.57;;
13327;SDS011;6733;51.044;3.746;2022-10-26T17:31:40;7.23;;;5.03;;
13327;SDS011;6733;51.044;3.746;2022-10-26T17:34:06;7.17;;;4.87;;
13327;SDS011;6733;51.044;3.746;2022-10-26T17:36:33;8.10;;;4.73;;
13327;SDS011;6733;51.044;3.746;2022-10-26T17:38:59;6.03;;;3.47;;
13327;SDS011;6733;51.044;3.746;2022-10-26T17:41:25;6.53;;;3.57;;
13327;SDS011;6733;51.044;3.746;2022-10-26T17:43:52;6.43;;;3.50;;
13327;SDS011;6733;51.044;3.746;2022-10-26T17:46:20;6.07;;;2.93;;
13327;SDS011;6733;51.044;3.746;2022-10-26T17:48:59;10.03;;;3.50;;
13327;SDS011;6733;51.044;3.746;2022-10-26T17:51:27;5.33;;;2.80;;
13327;SDS011;6733;51.044;3.746;2022-10-26T17:53:54;6.67;;;3.83;;
13327;SDS011;6733;51.044;3.746;2022-10-26T17:56:23;4.40;;;3.50;;
13327;SDS011;6733;51.044;3.746;2022-10-26T17:58:54;8.33;;;3.63;;
13327;SDS011;6733;51.044;3.746;2022-10-26T18:01:31;7.17;;;5.00;;
13327;SDS011;6733;51.044;3.746;2022-10-26T18:03:57;8.10;;;4.50;;
13327;SDS011;6733;51.044;3.746;2022-10-26T18:06:25;8.60;;;4.27;;
13327;SDS011;6733;51.044;3.746;2022-10-26T18:08:51;7.63;;;3.60;;
13327;SDS011;6733;51.044;3.746;2022-10-26T18:11:19;5.63;;;3.47;;
13327;SDS011;6733;51.044;3.746;2022-10-26T18:13:47;6.87;;;3.20;;
13327;SDS011;6733;51.044;3.746;2022-10-26T18:16:14;7.97;;;3.17;;